createdAt,value
2022-08-26T00:02:13.554Z,12.20
2022-08-26T00:04:44.724Z,12.70
2022-08-26T00:07:14.053Z,12.23
2022-08-26T00:09:47.060Z,11.43
2022-08-26T00:12:18.067Z,11.10
2022-08-26T00:14:47.252Z,11.40
2022-08-26T00:17:16.183Z,11.13
2022-08-26T00:19:45.123Z,11.90
2022-08-26T00:22:21.510Z,11.97
2022-08-26T00:24:51.727Z,11.40
2022-08-26T00:27:22.468Z,11.77
2022-08-26T00:29:51.663Z,11.50
2022-08-26T00:32:21.023Z,11.03
2022-08-26T00:34:49.887Z,11.30
2022-08-26T00:37:19.110Z,11.43
2022-08-26T00:39:48.192Z,13.30
2022-08-26T00:42:18.127Z,11.93
2022-08-26T00:44:48.290Z,11.80
2022-08-26T00:47:26.293Z,10.93
2022-08-26T00:50:03.296Z,11.37
2022-08-26T00:52:33.523Z,10.70
2022-08-26T00:55:08.307Z,10.73
2022-08-26T00:57:37.945Z,11.37
2022-08-26T01:00:13.189Z,12.30
2022-08-26T01:02:46.821Z,11.90
2022-08-26T01:05:17.419Z,11.90
2022-08-26T01:07:47.451Z,12.37
2022-08-26T01:10:23.035Z,12.30
2022-08-26T01:12:57.506Z,11.97
2022-08-26T01:15:34.826Z,12.77
2022-08-26T01:18:05.549Z,11.63
2022-08-26T01:20:41.285Z,12.03
2022-08-26T01:23:12.836Z,12.43
2022-08-26T01:25:46.566Z,12.30
2022-08-26T01:28:18.271Z,11.93
2022-08-26T01:30:50.847Z,12.83
2022-08-26T01:33:23.690Z,12.40
2022-08-26T01:35:53.424Z,14.10
2022-08-26T01:38:23.864Z,12.03
2022-08-26T01:40:54.523Z,11.70
2022-08-26T01:43:28.911Z,12.90
2022-08-26T01:45:58.554Z,12.40
2022-08-26T01:48:32.093Z,11.77
2022-08-26T01:51:02.736Z,11.57
2022-08-26T01:53:33.564Z,13.23
2022-08-26T01:56:03.901Z,12.43
2022-08-26T01:58:37.007Z,13.20
2022-08-26T02:01:06.793Z,12.27
2022-08-26T02:03:47.543Z,13.03
2022-08-26T02:06:16.610Z,12.33
2022-08-26T02:08:49.543Z,11.40
2022-08-26T02:11:19.611Z,12.63
2022-08-26T02:13:52.327Z,12.73
2022-08-26T02:16:27.054Z,12.27
2022-08-26T02:18:56.797Z,12.10
2022-08-26T02:21:26.022Z,13.00
2022-08-26T02:23:57.102Z,12.40
2022-08-26T02:26:26.981Z,12.00
2022-08-26T02:29:01.314Z,12.17
2022-08-26T02:31:31.069Z,12.43
2022-08-26T02:34:10.723Z,15.07
2022-08-26T02:36:40.137Z,11.60
2022-08-26T02:39:10.877Z,12.93
2022-08-26T02:41:44.994Z,11.83
2022-08-26T02:44:14.276Z,12.67
2022-08-26T02:46:47.239Z,11.77
2022-08-26T02:49:17.004Z,11.40
2022-08-26T02:51:46.331Z,12.07
2022-08-26T02:54:17.251Z,11.40
2022-08-26T02:56:46.819Z,12.63
2022-08-26T02:59:16.134Z,12.40
2022-08-26T03:01:47.289Z,12.20
2022-08-26T03:04:16.566Z,13.67
2022-08-26T03:06:47.094Z,12.60
2022-08-26T03:09:23.389Z,12.17
2022-08-26T03:11:52.809Z,12.00
2022-08-26T03:14:23.698Z,15.87
2022-08-26T03:16:54.408Z,12.43
2022-08-26T03:19:25.615Z,13.27
2022-08-26T03:21:58.033Z,12.00
2022-08-26T03:24:28.891Z,12.37
2022-08-26T03:26:58.490Z,12.97
2022-08-26T03:29:45.095Z,15.40
2022-08-26T03:32:18.903Z,14.67
2022-08-26T03:34:48.154Z,12.47
2022-08-26T03:37:17.135Z,13.17
2022-08-26T03:39:48.097Z,13.80
2022-08-26T03:42:17.730Z,13.03
2022-08-26T03:44:51.458Z,12.83
2022-08-26T03:47:21.115Z,14.43
2022-08-26T03:49:50.655Z,15.03
2022-08-26T03:52:20.879Z,12.67
2022-08-26T03:54:51.275Z,12.83
2022-08-26T03:57:20.783Z,14.37
2022-08-26T03:59:52.447Z,14.53
2022-08-26T04:02:24.373Z,12.80
2022-08-26T04:04:55.195Z,13.77
2022-08-26T04:07:26.039Z,16.87
2022-08-26T04:09:58.460Z,15.03
2022-08-26T04:12:27.570Z,18.30
2022-08-26T04:14:57.198Z,15.40
2022-08-26T04:17:26.814Z,13.67
2022-08-26T04:19:56.579Z,16.40
2022-08-26T04:22:26.751Z,13.43
2022-08-26T04:24:59.996Z,12.83
2022-08-26T04:27:29.179Z,13.33
2022-08-26T04:29:59.043Z,13.90
2022-08-26T04:32:28.535Z,13.07
2022-08-26T04:34:57.950Z,13.53
2022-08-26T04:37:28.571Z,13.97
2022-08-26T04:39:59.127Z,13.70
2022-08-26T04:42:29.348Z,13.57
2022-08-26T04:44:58.826Z,15.13
2022-08-26T04:47:32.114Z,14.97
2022-08-26T04:50:02.086Z,14.70
2022-08-26T04:52:31.651Z,15.27
2022-08-26T04:55:03.074Z,14.23
2022-08-26T04:57:36.804Z,12.13
2022-08-26T05:00:08.035Z,13.80
2022-08-26T05:02:37.370Z,15.73
2022-08-26T05:05:07.957Z,12.53
2022-08-26T05:07:37.598Z,12.50
2022-08-26T05:10:09.519Z,13.87
2022-08-26T05:12:39.850Z,14.00
2022-08-26T05:15:11.251Z,14.50
2022-08-26T05:17:40.225Z,15.70
2022-08-26T05:20:10.089Z,13.20
2022-08-26T05:22:39.611Z,13.80
2022-08-26T05:25:10.760Z,13.90
2022-08-26T05:27:39.963Z,12.47
2022-08-26T05:30:10.484Z,15.73
2022-08-26T05:32:39.503Z,13.37
2022-08-26T05:35:09.116Z,14.93
2022-08-26T05:37:39.255Z,13.30
2022-08-26T05:40:12.322Z,13.27
2022-08-26T05:42:43.478Z,12.17
2022-08-26T05:45:13.314Z,14.83
2022-08-26T05:47:42.781Z,16.63
2022-08-26T05:50:12.186Z,14.23
2022-08-26T05:52:41.657Z,14.40
2022-08-26T05:55:12.326Z,15.87
2022-08-26T05:57:42.837Z,15.50
2022-08-26T06:00:13.435Z,17.90
2022-08-26T06:02:43.399Z,16.90
2022-08-26T06:05:17.563Z,12.67
2022-08-26T06:08:04.063Z,16.53
2022-08-26T06:10:34.916Z,14.57
2022-08-26T06:13:11.544Z,16.80
2022-08-26T06:15:44.204Z,14.50
2022-08-26T06:18:15.530Z,15.10
2022-08-26T06:20:57.823Z,16.47
2022-08-26T06:23:46.794Z,12.83
2022-08-26T06:26:18.066Z,15.23
2022-08-26T06:28:47.274Z,15.63
2022-08-26T06:31:16.775Z,21.30
2022-08-26T06:33:46.404Z,12.80
2022-08-26T06:36:19.467Z,15.07
2022-08-26T06:38:49.402Z,11.83
2022-08-26T06:41:21.438Z,13.33
2022-08-26T06:43:51.034Z,12.67
2022-08-26T06:46:22.815Z,17.63
2022-08-26T06:48:53.646Z,15.20
2022-08-26T06:51:26.246Z,16.37
2022-08-26T06:53:59.482Z,21.73
2022-08-26T06:56:35.746Z,18.97
2022-08-26T06:59:07.606Z,17.97
2022-08-26T07:01:43.101Z,13.93
2022-08-26T07:04:21.872Z,10.33
2022-08-26T07:06:53.539Z,15.73
2022-08-26T07:09:24.368Z,14.47
2022-08-26T07:11:56.591Z,14.50
2022-08-26T07:14:26.579Z,14.90
2022-08-26T07:16:56.282Z,15.93
2022-08-26T07:19:28.514Z,14.50
2022-08-26T07:22:03.430Z,18.30
2022-08-26T07:24:33.540Z,15.53
2022-08-26T07:27:08.788Z,14.17
2022-08-26T07:29:40.347Z,18.03
2022-08-26T07:32:11.680Z,15.03
2022-08-26T07:34:42.616Z,14.93
2022-08-26T07:37:12.088Z,14.83
2022-08-26T07:39:43.170Z,17.10
2022-08-26T07:42:16.772Z,16.33
2022-08-26T07:44:48.394Z,16.93
2022-08-26T07:47:25.836Z,15.10
2022-08-26T07:49:57.353Z,12.50
2022-08-26T07:52:28.790Z,12.40
2022-08-26T07:54:58.594Z,11.47
2022-08-26T07:57:30.781Z,12.03
2022-08-26T08:00:00.532Z,13.80
2022-08-26T08:02:31.048Z,15.90
2022-08-26T08:05:01.251Z,14.80
2022-08-26T08:07:44.632Z,14.43
2022-08-26T08:10:18.019Z,10.83
2022-08-26T08:12:49.953Z,14.93
2022-08-26T08:15:24.371Z,12.20
2022-08-26T08:17:55.608Z,14.17
2022-08-26T08:20:28.657Z,15.17
2022-08-26T08:22:58.060Z,15.17
2022-08-26T08:25:27.395Z,15.57
2022-08-26T08:27:57.935Z,16.00
2022-08-26T08:30:27.513Z,11.20
2022-08-26T08:32:56.534Z,13.43
2022-08-26T08:35:26.384Z,14.43
2022-08-26T08:37:56.483Z,12.13
2022-08-26T08:40:27.744Z,17.60
2022-08-26T08:43:06.214Z,13.83
2022-08-26T08:45:38.068Z,13.40
2022-08-26T08:48:13.447Z,12.83
2022-08-26T08:50:46.923Z,13.27
2022-08-26T08:53:22.665Z,12.20
2022-08-26T08:56:04.288Z,12.13
2022-08-26T08:58:48.310Z,13.90
2022-08-26T09:01:29.182Z,14.27
2022-08-26T09:04:17.234Z,10.70
2022-08-26T09:06:47.399Z,10.47
2022-08-26T09:09:24.337Z,9.37
2022-08-26T09:11:56.213Z,9.10
2022-08-26T09:14:26.669Z,9.27
2022-08-26T09:17:06.511Z,14.37
2022-08-26T09:19:42.469Z,11.63
2022-08-26T09:22:12.088Z,13.63
2022-08-26T09:24:48.232Z,11.37
2022-08-26T09:27:38.122Z,13.23
2022-08-26T09:30:11.855Z,10.23
2022-08-26T09:32:42.079Z,11.00
2022-08-26T09:35:24.486Z,10.00
2022-08-26T09:37:53.906Z,12.77
2022-08-26T09:40:29.034Z,9.57
2022-08-26T09:43:11.528Z,12.47
2022-08-26T09:45:50.783Z,10.47
2022-08-26T09:48:31.482Z,11.30
2022-08-26T09:51:02.619Z,8.23
2022-08-26T09:53:36.819Z,7.73
2022-08-26T09:56:17.201Z,9.93
2022-08-26T09:58:48.400Z,9.33
2022-08-26T10:01:30.477Z,8.10
2022-08-26T10:04:07.513Z,9.00
2022-08-26T10:06:41.881Z,11.07
2022-08-26T10:09:16.993Z,10.73
2022-08-26T10:11:52.203Z,14.23
2022-08-26T10:14:26.629Z,10.87
2022-08-26T10:17:03.121Z,7.73
2022-08-26T10:19:41.633Z,7.53
2022-08-26T10:22:33.262Z,11.63
2022-08-26T10:25:06.130Z,8.40
2022-08-26T10:27:49.526Z,8.10
2022-08-26T10:30:25.323Z,10.00
2022-08-26T10:32:58.744Z,10.60
2022-08-26T10:35:28.839Z,10.23
2022-08-26T10:38:02.820Z,13.53
2022-08-26T10:40:41.919Z,8.00
2022-08-26T10:43:15.359Z,8.53
2022-08-26T10:45:48.795Z,7.73
2022-08-26T10:48:25.767Z,11.40
2022-08-26T10:51:06.247Z,9.83
2022-08-26T10:53:45.059Z,8.97
2022-08-26T10:56:25.959Z,8.73
2022-08-26T10:59:02.992Z,8.50
2022-08-26T11:01:47.206Z,8.37
2022-08-26T11:04:44.415Z,8.23
2022-08-26T11:07:38.041Z,10.03
2022-08-26T11:10:26.702Z,8.13
2022-08-26T11:13:01.024Z,8.97
2022-08-26T11:16:08.249Z,11.13
2022-08-26T11:18:43.633Z,11.07
2022-08-26T11:21:49.472Z,8.03
2022-08-26T11:24:45.280Z,13.57
2022-08-26T11:28:04.298Z,9.07
2022-08-26T11:30:56.859Z,7.23
2022-08-26T11:33:59.590Z,10.70
2022-08-26T11:36:41.672Z,9.10
2022-08-26T11:39:24.111Z,7.00
2022-08-26T11:41:58.103Z,8.90
2022-08-26T11:44:39.943Z,8.30
2022-08-26T11:47:11.510Z,13.60
2022-08-26T11:49:42.191Z,12.93
2022-08-26T11:52:20.939Z,14.80
2022-08-26T11:55:05.145Z,9.77
2022-08-26T11:57:43.128Z,7.57
2022-08-26T12:00:22.306Z,12.20
2022-08-26T12:02:52.663Z,10.23
2022-08-26T12:05:29.433Z,8.80
2022-08-26T12:08:06.881Z,10.07
2022-08-26T12:10:37.005Z,8.90
2022-08-26T12:13:08.856Z,7.17
2022-08-26T12:15:38.262Z,6.13
2022-08-26T12:18:29.689Z,6.17
2022-08-26T12:21:12.206Z,8.30
2022-08-26T12:23:44.506Z,7.63
2022-08-26T12:26:22.592Z,8.93
2022-08-26T12:28:57.613Z,7.50
2022-08-26T12:31:33.015Z,7.03
2022-08-26T12:34:06.417Z,8.97
2022-08-26T12:36:49.809Z,7.53
2022-08-26T12:39:27.541Z,9.53
2022-08-26T12:41:57.990Z,9.30
2022-08-26T12:44:53.322Z,8.60
2022-08-26T12:47:31.018Z,8.83
2022-08-26T12:50:19.387Z,5.50
2022-08-26T12:53:00.832Z,8.27
2022-08-26T12:55:39.806Z,8.57
2022-08-26T12:58:20.506Z,7.37
2022-08-26T13:00:53.913Z,8.13
2022-08-26T13:03:46.261Z,6.90
2022-08-26T13:06:25.824Z,7.80
2022-08-26T13:08:57.747Z,10.40
2022-08-26T13:11:29.602Z,8.27
2022-08-26T13:14:02.838Z,7.77
2022-08-26T13:16:38.614Z,9.10
2022-08-26T13:19:10.768Z,7.07
2022-08-26T13:21:45.001Z,8.73
2022-08-26T13:24:16.624Z,9.10
2022-08-26T13:26:48.972Z,15.90
2022-08-26T13:29:19.403Z,9.97
2022-08-26T13:31:50.466Z,8.57
2022-08-26T13:34:21.592Z,7.30
2022-08-26T13:36:53.990Z,6.27
2022-08-26T13:39:24.533Z,6.80
2022-08-26T13:41:54.692Z,6.27
2022-08-26T13:44:24.137Z,9.37
2022-08-26T13:46:55.049Z,5.03
2022-08-26T13:49:24.085Z,7.17
2022-08-26T13:51:53.148Z,8.63
2022-08-26T13:54:21.964Z,6.37
2022-08-26T13:56:51.772Z,6.70
2022-08-26T13:59:20.511Z,7.20
2022-08-26T14:01:49.388Z,7.33
2022-08-26T14:04:22.465Z,7.37
2022-08-26T14:06:56.618Z,7.43
2022-08-26T14:09:25.811Z,7.07
2022-08-26T14:11:55.369Z,8.47
2022-08-26T14:14:25.221Z,10.70
2022-08-26T14:17:00.046Z,8.60
2022-08-26T14:19:32.431Z,6.53
2022-08-26T14:22:02.172Z,6.97
2022-08-26T14:24:31.327Z,9.20
2022-08-26T14:27:00.554Z,5.20
2022-08-26T14:29:29.508Z,8.13
2022-08-26T14:32:02.445Z,6.73
2022-08-26T14:34:32.743Z,8.23
2022-08-26T14:37:08.206Z,9.07
2022-08-26T14:39:38.722Z,6.63
2022-08-26T14:42:10.048Z,6.07
2022-08-26T14:44:39.989Z,5.90
2022-08-26T14:47:11.702Z,11.93
2022-08-26T14:49:42.223Z,8.67
2022-08-26T14:52:11.292Z,8.93
2022-08-26T14:54:40.221Z,8.40
2022-08-26T14:57:12.169Z,6.47
2022-08-26T14:59:42.970Z,11.77
2022-08-26T15:02:22.291Z,8.13
2022-08-26T15:05:05.158Z,10.03
2022-08-26T15:07:35.975Z,10.30
2022-08-26T15:10:06.951Z,10.07
2022-08-26T15:12:36.690Z,7.53
2022-08-26T15:15:06.684Z,8.33
2022-08-26T15:17:36.081Z,8.53
2022-08-26T15:20:08.499Z,11.90
2022-08-26T15:22:38.684Z,9.07
2022-08-26T15:25:08.556Z,8.07
2022-08-26T15:27:38.240Z,6.03
2022-08-26T15:30:11.507Z,12.77
2022-08-26T15:32:40.723Z,8.53
2022-08-26T15:35:11.520Z,8.50
2022-08-26T15:37:40.751Z,10.30
2022-08-26T15:40:11.145Z,9.37
2022-08-26T15:42:41.097Z,8.57
2022-08-26T15:45:11.778Z,8.50
2022-08-26T15:48:00.820Z,8.47
2022-08-26T15:50:51.172Z,6.83
2022-08-26T15:53:21.368Z,9.00
2022-08-26T15:55:51.135Z,10.57
2022-08-26T15:58:21.531Z,13.53
2022-08-26T16:00:50.717Z,9.67
2022-08-26T16:03:20.627Z,6.70
2022-08-26T16:05:51.088Z,7.70
2022-08-26T16:08:20.597Z,7.27
2022-08-26T16:10:51.454Z,6.40
2022-08-26T16:13:21.811Z,8.37
2022-08-26T16:15:52.448Z,10.60
2022-08-26T16:18:23.621Z,8.90
2022-08-26T16:21:06.587Z,8.20
2022-08-26T16:23:43.264Z,8.20
2022-08-26T16:26:17.640Z,9.73
2022-08-26T16:28:47.550Z,8.27
2022-08-26T16:31:17.857Z,7.57
2022-08-26T16:33:47.296Z,6.53
2022-08-26T16:36:18.195Z,6.53
2022-08-26T16:38:50.099Z,6.20
2022-08-26T16:41:19.190Z,8.47
2022-08-26T16:43:49.025Z,5.63
2022-08-26T16:46:19.022Z,4.10
2022-08-26T16:48:48.943Z,6.83
2022-08-26T16:51:23.039Z,6.93
2022-08-26T16:53:53.490Z,4.10
2022-08-26T16:56:27.715Z,4.33
2022-08-26T16:59:04.139Z,6.50
2022-08-26T17:01:33.715Z,3.93
2022-08-26T17:04:02.918Z,5.40
2022-08-26T17:06:33.989Z,4.47
2022-08-26T17:09:02.925Z,5.93
2022-08-26T17:11:32.977Z,7.30
2022-08-26T17:14:02.931Z,4.33
2022-08-26T17:16:32.551Z,4.43
2022-08-26T17:19:04.363Z,4.60
2022-08-26T17:21:36.620Z,5.40
2022-08-26T17:24:06.765Z,3.10
2022-08-26T17:26:37.692Z,4.73
2022-08-26T17:29:07.213Z,4.43
2022-08-26T17:31:36.284Z,4.87
2022-08-26T17:34:06.043Z,5.83
2022-08-26T17:36:36.859Z,4.57
2022-08-26T17:39:05.995Z,4.90
2022-08-26T17:41:35.142Z,4.50
2022-08-26T17:44:04.898Z,4.90
2022-08-26T17:46:38.220Z,5.23
2022-08-26T17:49:08.008Z,4.93
2022-08-26T17:51:38.571Z,5.33
2022-08-26T17:54:07.463Z,6.33
2022-08-26T17:56:36.314Z,6.03
2022-08-26T17:59:05.626Z,5.80
2022-08-26T18:01:36.711Z,5.70
2022-08-26T18:04:06.061Z,7.50
2022-08-26T18:06:35.632Z,6.23
2022-08-26T18:09:06.183Z,6.93
2022-08-26T18:11:35.375Z,5.70
2022-08-26T18:14:04.831Z,6.53
2022-08-26T18:16:38.171Z,7.83
2022-08-26T18:19:07.348Z,6.80
2022-08-26T18:21:37.186Z,5.97
2022-08-26T18:24:12.161Z,4.87
2022-08-26T18:26:48.248Z,6.77
2022-08-26T18:29:18.960Z,6.20
2022-08-26T18:31:48.607Z,6.13
2022-08-26T18:34:17.851Z,5.57
2022-08-26T18:36:47.377Z,6.07
2022-08-26T18:39:19.155Z,6.43
2022-08-26T18:41:53.370Z,7.47
2022-08-26T18:44:23.627Z,7.90
2022-08-26T18:46:53.459Z,8.43
2022-08-26T18:49:23.477Z,6.27
2022-08-26T18:51:53.181Z,4.97
2022-08-26T18:54:23.752Z,5.77
2022-08-26T18:56:53.026Z,6.40
2022-08-26T18:59:26.858Z,7.57
2022-08-26T19:02:00.255Z,7.67
2022-08-26T19:04:29.703Z,7.40
2022-08-26T19:06:58.776Z,4.93
2022-08-26T19:09:31.168Z,6.97
2022-08-26T19:12:02.135Z,6.07
2022-08-26T19:14:32.492Z,7.77
2022-08-26T19:17:02.499Z,5.07
2022-08-26T19:19:32.442Z,5.90
2022-08-26T19:22:02.080Z,5.50
2022-08-26T19:24:32.824Z,6.67
2022-08-26T19:27:03.546Z,5.87
2022-08-26T19:29:35.099Z,5.97
2022-08-26T19:32:05.326Z,5.60
2022-08-26T19:34:34.253Z,6.73
2022-08-26T19:37:03.224Z,7.70
2022-08-26T19:39:37.399Z,5.73
2022-08-26T19:42:07.028Z,5.83
2022-08-26T19:44:54.051Z,6.50
2022-08-26T19:47:23.551Z,6.97
2022-08-26T19:49:54.883Z,9.90
2022-08-26T19:52:29.952Z,8.63
2022-08-26T19:55:02.187Z,6.13
2022-08-26T19:57:31.507Z,5.37
2022-08-26T20:00:01.424Z,5.77
2022-08-26T20:02:31.121Z,5.97
2022-08-26T20:05:00.342Z,5.77
2022-08-26T20:07:29.797Z,7.97
2022-08-26T20:10:00.436Z,6.20
2022-08-26T20:12:33.596Z,6.27
2022-08-26T20:15:04.380Z,9.60
2022-08-26T20:17:35.546Z,7.27
2022-08-26T20:20:33.119Z,6.93
2022-08-26T20:23:05.113Z,6.97
2022-08-26T20:25:35.730Z,8.93
2022-08-26T20:28:05.459Z,6.50
2022-08-26T20:30:34.694Z,6.83
2022-08-26T20:33:03.753Z,6.67
2022-08-26T20:35:32.707Z,5.70
2022-08-26T20:38:01.545Z,7.27
2022-08-26T20:40:30.823Z,6.07
2022-08-26T20:43:01.694Z,6.53
2022-08-26T20:45:30.639Z,6.70
2022-08-26T20:47:59.931Z,6.70
2022-08-26T20:50:29.341Z,10.70
2022-08-26T20:52:58.453Z,6.60
2022-08-26T20:55:29.019Z,6.60
2022-08-26T20:57:58.615Z,6.03
2022-08-26T21:00:29.291Z,6.40
2022-08-26T21:02:59.299Z,6.37
2022-08-26T21:05:28.364Z,7.33
2022-08-26T21:07:57.388Z,7.07
2022-08-26T21:10:29.142Z,6.10
2022-08-26T21:12:58.601Z,6.37
2022-08-26T21:15:29.299Z,7.17
2022-08-26T21:18:00.498Z,6.40
2022-08-26T21:20:29.674Z,6.20
2022-08-26T21:22:59.489Z,6.30
2022-08-26T21:25:28.467Z,6.50
2022-08-26T21:27:57.643Z,6.90
2022-08-26T21:30:29.501Z,6.10
2022-08-26T21:32:58.953Z,6.73
2022-08-26T21:35:28.062Z,9.63
2022-08-26T21:37:57.501Z,8.57
2022-08-26T21:40:27.568Z,8.37
2022-08-26T21:42:57.016Z,7.30
2022-08-26T21:45:26.242Z,7.87
2022-08-26T21:47:57.263Z,9.23
2022-08-26T21:50:29.390Z,6.30
2022-08-26T21:52:58.811Z,7.10
2022-08-26T21:55:28.065Z,7.50
2022-08-26T21:57:57.358Z,7.17
2022-08-26T22:00:26.448Z,6.20
2022-08-26T22:03:00.641Z,6.53
2022-08-26T22:05:29.746Z,6.33
2022-08-26T22:07:58.766Z,6.87
2022-08-26T22:10:28.264Z,7.57
2022-08-26T22:12:57.354Z,6.67
2022-08-26T22:15:27.798Z,6.70
2022-08-26T22:17:58.650Z,6.50
2022-08-26T22:20:28.726Z,6.30
2022-08-26T22:22:58.503Z,7.93
2022-08-26T22:25:29.005Z,6.77
2022-08-26T22:27:58.629Z,6.20
2022-08-26T22:30:27.759Z,7.53
2022-08-26T22:32:58.330Z,6.13
2022-08-26T22:35:28.991Z,6.43
2022-08-26T22:37:59.506Z,8.60
2022-08-26T22:40:29.016Z,7.23
2022-08-26T22:42:59.989Z,9.87
2022-08-26T22:45:31.257Z,7.07
2022-08-26T22:48:05.012Z,6.77
2022-08-26T22:50:33.880Z,6.57
2022-08-26T22:53:03.309Z,8.03
2022-08-26T22:55:32.791Z,6.67
2022-08-26T22:58:02.016Z,6.40
2022-08-26T23:00:32.449Z,8.23
2022-08-26T23:03:05.347Z,7.03
2022-08-26T23:05:34.608Z,7.20
2022-08-26T23:08:04.410Z,8.80
2022-08-26T23:10:33.947Z,7.30
2022-08-26T23:13:04.111Z,8.07
2022-08-26T23:15:33.166Z,8.13
2022-08-26T23:18:04.679Z,7.67
2022-08-26T23:20:34.014Z,8.40
2022-08-26T23:23:03.028Z,8.60
2022-08-26T23:25:32.782Z,7.80
2022-08-26T23:28:02.866Z,8.07
2022-08-26T23:30:35.740Z,9.03
2022-08-26T23:33:06.362Z,8.20
2022-08-26T23:35:34.279Z,8.63
2022-08-26T23:38:03.553Z,8.77
2022-08-26T23:40:35.909Z,8.33
2022-08-26T23:43:09.431Z,8.57
2022-08-26T23:45:38.621Z,8.63
2022-08-26T23:48:09.124Z,8.43
2022-08-26T23:50:55.449Z,9.90
2022-08-26T23:53:24.387Z,8.90
2022-08-26T23:55:53.973Z,8.97
2022-08-26T23:58:23.580Z,7.77
